New Harmony, UT (84757)

1:10 AM MDT on September 02, 2014 (GMT -0600)
Harmony heights 2 | Change Station
CLOSE
Current Station
Personal Weather Station
Location: New Harmony, UT
Elevation: 5148 ft
Nearby Weather Stations

Elev 5148 ft 37.46 °N, 113.29 °W | Updated 2 minutes ago

Clear
Clear
58.1 °F
Feels Like 58.1 °F
N
2.2
Wind Variable Wind from West

Today
High -- | Low -- °F
--% Chance of Precip.
Yesterday
High -- | Low -- °F
Precip. -- in
7:04 AM 8:00 PM
Waxing Crescent, 48% visible
Pressure 29.85 in
Visibility 10.0 miles
Clouds Clear
Dew Point 42 °F
Humidity 54%
Rainfall 0.00 in
Snow Depth Not available.
UV 0 out of 12
Pollen 7.40 out of 12
Air Quality Not available.
Flu Activity Not available.
METAR KCDC 020653Z AUTO 15003KT 10SM CLR 18/01 A3009 RMK AO2 SLP107 T01830011 403110083

More Conditions Fewer Conditions

Pressure 29.85 in
Visibility 10.0 miles
Clouds Clear
Dew Point 42 °F
Humidity 54%
Rainfall 0.00 in
Snow Depth Not available.
UV 0 out of 12
Pollen 7.40 out of 12
Air Quality Not available.
Flu Activity Not available.
METAR KCDC 020653Z AUTO 15003KT 10SM CLR 18/01 A3009 RMK AO2 SLP107 T01830011 403110083

More Conditions Fewer Conditions

10-Day Weather Forecast

Almanac

Astronomy

Sep. 02, 2014 Rise Set
Actual Time 7:04 AM MDT 8:00 PM MDT
Civil Twilight 6:37 AM MDT 8:27 PM MDT
Nautical Twilight 6:06 AM MDT 8:58 PM MDT
Astronomical Twilight 5:33 AM MDT 9:31 PM MDT
Moon 2:43 PM MDT 12:14 AM MDT
Length of Visible Light 13h 49m
Length of Day
12h 56m
Tomorrow will be 2m 19s shorter.
Waxing Crescent, 48% of the Moon is Illuminated
Today
Waxing Crescent
Sep 2
First Quarter
Sep 8
Full
Sep 15
Last Quarter
Sep 24
New

Today's Extremes

State Highs State Lows

Community

WunderPhotos

Upload Photos

1,749,589 photos uploaded!

WunderBlogs® & News

Nearby

Snow Depth

Station Depth Elevation
Webster Flat 0 in 9200 ft
Midway Valley 5 in 9800 ft
Long Valley Jct 1 in 7360 ft
Agua Canyon 4 in 8900 ft
Merchant Valley 0 in 8750 ft

Earthquake Activity

City Distance Mag. Time & Date
No recent earthquake activity has been reported nearby.
Minimum magnitude displayed is 2.5.

Coastal Water Temperatures

Place Temperature
No Stations Reporting

Nearby Weather Stations